sensor_id;sensor_type;location;lat;lon;timestamp;pressure;altitude;pressure_sealevel;temperature
64904;BMP280;51401;48.882;12.598;2022-12-07T00:01:24;103245.97;;;3.98
64904;BMP280;51401;48.882;12.598;2022-12-07T00:03:51;103208.03;;;4.00
64904;BMP280;51401;48.882;12.598;2022-12-07T00:06:18;103118.09;;;3.93
64904;BMP280;51401;48.882;12.598;2022-12-07T00:08:43;103105.44;;;3.92
64904;BMP280;51401;48.882;12.598;2022-12-07T00:13:36;103028.75;;;3.89
64904;BMP280;51401;48.882;12.598;2022-12-07T00:16:22;102933.13;;;3.87
64904;BMP280;51401;48.882;12.598;2022-12-07T00:18:48;102917.50;;;3.88
64904;BMP280;51401;48.882;12.598;2022-12-07T00:21:19;102893.19;;;3.84
64904;BMP280;51401;48.882;12.598;2022-12-07T00:23:46;102895.19;;;3.83
64904;BMP280;51401;48.882;12.598;2022-12-07T00:26:17;102898.34;;;3.84
64904;BMP280;51401;48.882;12.598;2022-12-07T00:28:47;102940.63;;;3.88
64904;BMP280;51401;48.882;12.598;2022-12-07T00:31:15;103005.66;;;3.95
64904;BMP280;51401;48.882;12.598;2022-12-07T00:33:40;102991.22;;;3.94
64904;BMP280;51401;48.882;12.598;2022-12-07T00:36:08;103009.84;;;4.03
64904;BMP280;51401;48.882;12.598;2022-12-07T00:38:36;102960.22;;;4.02
64904;BMP280;51401;48.882;12.598;2022-12-07T00:41:05;102878.63;;;3.91
64904;BMP280;51401;48.882;12.598;2022-12-07T00:43:31;102848.97;;;3.83
64904;BMP280;51401;48.882;12.598;2022-12-07T00:45:57;102862.63;;;3.83
64904;BMP280;51401;48.882;12.598;2022-12-07T00:48:30;102873.88;;;3.82
64904;BMP280;51401;48.882;12.598;2022-12-07T00:50:56;102933.13;;;3.87
64904;BMP280;51401;48.882;12.598;2022-12-07T00:53:21;102933.34;;;3.92
64904;BMP280;51401;48.882;12.598;2022-12-07T00:55:47;102925.03;;;3.90
64904;BMP280;51401;48.882;12.598;2022-12-07T00:58:15;102893.19;;;3.84
64904;BMP280;51401;48.882;12.598;2022-12-07T01:00:41;102913.75;;;3.84
64904;BMP280;51401;48.882;12.598;2022-12-07T01:03:09;102947.13;;;3.84
64904;BMP280;51401;48.882;12.598;2022-12-07T01:05:35;102986.50;;;3.91
64904;BMP280;51401;48.882;12.598;2022-12-07T01:08:00;102968.69;;;3.90
64904;BMP280;51401;48.882;12.598;2022-12-07T01:10:26;102952.31;;;3.91
64904;BMP280;51401;48.882;12.598;2022-12-07T01:12:52;102898.00;;;3.81
64904;BMP280;51401;48.882;12.598;2022-12-07T01:15:20;102937.28;;;3.82
64904;BMP280;51401;48.882;12.598;2022-12-07T01:17:45;102950.50;;;3.79
64904;BMP280;51401;48.882;12.598;2022-12-07T01:20:11;103040.00;;;3.82
64904;BMP280;51401;48.882;12.598;2022-12-07T01:22:38;103056.97;;;3.76
64904;BMP280;51401;48.882;12.598;2022-12-07T01:25:13;103082.22;;;3.73
64904;BMP280;51401;48.882;12.598;2022-12-07T01:27:38;103104.56;;;3.72
64904;BMP280;51401;48.882;12.598;2022-12-07T01:30:06;103181.03;;;3.77
64904;BMP280;51401;48.882;12.598;2022-12-07T01:32:33;103225.06;;;3.74
64904;BMP280;51401;48.882;12.598;2022-12-07T01:34:58;103298.19;;;3.78
64904;BMP280;51401;48.882;12.598;2022-12-07T01:37:24;103339.28;;;3.78
64904;BMP280;51401;48.882;12.598;2022-12-07T01:39:52;103345.16;;;3.72
64904;BMP280;51401;48.882;12.598;2022-12-07T01:42:18;103441.91;;;3.71
64904;BMP280;51401;48.882;12.598;2022-12-07T01:47:46;103511.16;;;3.65
64904;BMP280;51401;48.882;12.598;2022-12-07T01:50:13;103595.50;;;3.61
64904;BMP280;51401;48.882;12.598;2022-12-07T01:52:39;103692.72;;;3.64
64904;BMP280;51401;48.882;12.598;2022-12-07T01:55:09;103752.13;;;3.61
64904;BMP280;51401;48.882;12.598;2022-12-07T01:57:37;103851.94;;;3.64
64904;BMP280;51401;48.882;12.598;2022-12-07T02:00:06;103914.75;;;3.62
64904;BMP280;51401;48.882;12.598;2022-12-07T02:02:38;103907.50;;;3.57
64904;BMP280;51401;48.882;12.598;2022-12-07T02:05:06;103974.91;;;3.59
64904;BMP280;51401;48.882;12.598;2022-12-07T02:07:34;104029.97;;;3.57
64904;BMP280;51401;48.882;12.598;2022-12-07T02:10:21;104082.97;;;3.58
64904;BMP280;51401;48.882;12.598;2022-12-07T02:12:53;104129.50;;;3.55
64904;BMP280;51401;48.882;12.598;2022-12-07T02:15:22;104187.75;;;3.54
64904;BMP280;51401;48.882;12.598;2022-12-07T02:18:00;104258.03;;;3.53
64904;BMP280;51401;48.882;12.598;2022-12-07T02:28:28;104500.44;;;3.52
64904;BMP280;51401;48.882;12.598;2022-12-07T02:30:55;104597.06;;;3.53
64904;BMP280;51401;48.882;12.598;2022-12-07T02:33:36;104656.28;;;3.52
64904;BMP280;51401;48.882;12.598;2022-12-07T02:36:13;104729.81;;;3.53
64904;BMP280;51401;48.882;12.598;2022-12-07T02:38:55;104817.53;;;3.58
64904;BMP280;51401;48.882;12.598;2022-12-07T02:41:30;104844.00;;;3.58
64904;BMP280;51401;48.882;12.598;2022-12-07T02:43:59;104834.25;;;3.62
64904;BMP280;51401;48.882;12.598;2022-12-07T02:46:37;104791.66;;;3.59
64904;BMP280;51401;48.882;12.598;2022-12-07T02:49:03;104730.59;;;3.53
64904;BMP280;51401;48.882;12.598;2022-12-07T02:51:31;104699.28;;;3.50
64904;BMP280;51401;48.882;12.598;2022-12-07T02:53:57;104646.31;;;3.49
64904;BMP280;51401;48.882;12.598;2022-12-07T02:56:46;104611.66;;;3.53
64904;BMP280;51401;48.882;12.598;2022-12-07T03:13:21;104060.44;;;3.68
64904;BMP280;51401;48.882;12.598;2022-12-07T03:15:56;103824.22;;;3.60
64904;BMP280;51401;48.882;12.598;2022-12-07T03:18:24;103710.00;;;3.56
64904;BMP280;51401;48.882;12.598;2022-12-07T03:20:53;103634.19;;;3.60
64904;BMP280;51401;48.882;12.598;2022-12-07T03:23:23;103496.06;;;3.55
64904;BMP280;51401;48.882;12.598;2022-12-07T03:25:56;103384.88;;;3.55
64904;BMP280;51401;48.882;12.598;2022-12-07T03:28:26;103301.56;;;3.57
64904;BMP280;51401;48.882;12.598;2022-12-07T03:31:01;103159.09;;;3.47
64904;BMP280;51401;48.882;12.598;2022-12-07T03:33:32;103087.59;;;3.44
64904;BMP280;51401;48.882;12.598;2022-12-07T03:36:10;103013.72;;;3.40
64904;BMP280;51401;48.882;12.598;2022-12-07T03:38:57;102916.63;;;3.43
64904;BMP280;51401;48.882;12.598;2022-12-07T03:41:27;102761.66;;;3.44
64904;BMP280;51401;48.882;12.598;2022-12-07T03:43:54;102665.72;;;3.45
64904;BMP280;51401;48.882;12.598;2022-12-07T03:49:11;102399.84;;;3.44
64904;BMP280;51401;48.882;12.598;2022-12-07T03:54:36;102151.72;;;3.45
64904;BMP280;51401;48.882;12.598;2022-12-07T03:57:05;102070.75;;;3.49
64904;BMP280;51401;48.882;12.598;2022-12-07T03:59:32;101963.06;;;3.42
64904;BMP280;51401;48.882;12.598;2022-12-07T04:02:03;101873.28;;;3.42
64904;BMP280;51401;48.882;12.598;2022-12-07T04:04:28;101812.03;;;3.46
64904;BMP280;51401;48.882;12.598;2022-12-07T04:06:54;101666.47;;;3.41
64904;BMP280;51401;48.882;12.598;2022-12-07T04:09:19;101585.72;;;3.44
64904;BMP280;51401;48.882;12.598;2022-12-07T04:11:45;101544.34;;;3.51
64904;BMP280;51401;48.882;12.598;2022-12-07T04:14:11;101346.78;;;3.51
64904;BMP280;51401;48.882;12.598;2022-12-07T04:16:50;101136.28;;;3.42
64904;BMP280;51401;48.882;12.598;2022-12-07T04:19:18;100972.41;;;3.40
64904;BMP280;51401;48.882;12.598;2022-12-07T04:21:44;100823.09;;;3.33
64904;BMP280;51401;48.882;12.598;2022-12-07T04:24:11;100736.94;;;3.32
64904;BMP280;51401;48.882;12.598;2022-12-07T04:26:37;100651.34;;;3.43
64904;BMP280;51401;48.882;12.598;2022-12-07T04:29:02;100515.41;;;3.33
64904;BMP280;51401;48.882;12.598;2022-12-07T04:31:28;100428.25;;;3.28
64904;BMP280;51401;48.882;12.598;2022-12-07T04:33:53;100365.16;;;3.27
64904;BMP280;51401;48.882;12.598;2022-12-07T04:36:20;100299.28;;;3.28
64904;BMP280;51401;48.882;12.598;2022-12-07T04:38:46;100258.03;;;3.24
64904;BMP280;51401;48.882;12.598;2022-12-07T04:41:11;100231.88;;;3.22
64904;BMP280;51401;48.882;12.598;2022-12-07T04:43:37;100248.53;;;3.25
64904;BMP280;51401;48.882;12.598;2022-12-07T04:46:02;100251.34;;;3.28
64904;BMP280;51401;48.882;12.598;2022-12-07T04:48:28;100227.78;;;3.26
64904;BMP280;51401;48.882;12.598;2022-12-07T04:50:53;100238.53;;;3.33
64904;BMP280;51401;48.882;12.598;2022-12-07T04:53:19;100195.19;;;3.22
64904;BMP280;51401;48.882;12.598;2022-12-07T04:55:45;100238.00;;;3.21
64904;BMP280;51401;48.882;12.598;2022-12-07T04:58:11;100275.19;;;3.29
64904;BMP280;51401;48.882;12.598;2022-12-07T05:00:36;100285.69;;;3.22
64904;BMP280;51401;48.882;12.598;2022-12-07T05:03:01;100329.00;;;3.19
64904;BMP280;51401;48.882;12.598;2022-12-07T05:05:27;100389.22;;;3.16
64904;BMP280;51401;48.882;12.598;2022-12-07T05:07:53;100463.03;;;3.15
64904;BMP280;51401;48.882;12.598;2022-12-07T05:10:18;100580.16;;;3.14
64904;BMP280;51401;48.882;12.598;2022-12-07T05:12:44;100698.84;;;3.15
64904;BMP280;51401;48.882;12.598;2022-12-07T05:15:10;100857.28;;;3.13
64904;BMP280;51401;48.882;12.598;2022-12-07T05:17:36;100984.91;;;3.15
64904;BMP280;51401;48.882;12.598;2022-12-07T05:20:02;101093.13;;;3.17
64904;BMP280;51401;48.882;12.598;2022-12-07T05:22:27;101199.28;;;3.16
64904;BMP280;51401;48.882;12.598;2022-12-07T05:24:56;101291.03;;;3.15
64904;BMP280;51401;48.882;12.598;2022-12-07T05:27:21;101406.84;;;3.12
64904;BMP280;51401;48.882;12.598;2022-12-07T05:29:47;101526.38;;;3.13
64904;BMP280;51401;48.882;12.598;2022-12-07T05:32:12;101625.81;;;3.11
64904;BMP280;51401;48.882;12.598;2022-12-07T05:34:37;101718.53;;;3.08
64904;BMP280;51401;48.882;12.598;2022-12-07T05:37:02;101809.28;;;3.07
64904;BMP280;51401;48.882;12.598;2022-12-07T05:39:28;101920.50;;;3.06
64904;BMP280;51401;48.882;12.598;2022-12-07T05:41:53;102005.56;;;3.03
64904;BMP280;51401;48.882;12.598;2022-12-07T05:44:37;102086.44;;;2.99
64904;BMP280;51401;48.882;12.598;2022-12-07T05:47:03;102195.31;;;2.96
64904;BMP280;51401;48.882;12.598;2022-12-07T05:49:28;102287.25;;;2.93
64904;BMP280;51401;48.882;12.598;2022-12-07T05:51:53;102347.78;;;2.87
64904;BMP280;51401;48.882;12.598;2022-12-07T05:54:19;102385.47;;;2.81
64904;BMP280;51401;48.882;12.598;2022-12-07T05:56:44;102457.09;;;2.69
64904;BMP280;51401;48.882;12.598;2022-12-07T05:59:09;102531.78;;;2.60
64904;BMP280;51401;48.882;12.598;2022-12-07T06:01:48;102651.59;;;2.51
64904;BMP280;51401;48.882;12.598;2022-12-07T06:04:13;102757.38;;;2.39
64904;BMP280;51401;48.882;12.598;2022-12-07T06:06:39;102971.44;;;2.42
64904;BMP280;51401;48.882;12.598;2022-12-07T06:09:04;103168.72;;;2.42
64904;BMP280;51401;48.882;12.598;2022-12-07T06:11:29;103320.59;;;2.36
64904;BMP280;51401;48.882;12.598;2022-12-07T06:14:13;103538.69;;;2.41
64904;BMP280;51401;48.882;12.598;2022-12-07T06:16:39;103733.47;;;2.41
64904;BMP280;51401;48.882;12.598;2022-12-07T06:19:04;103875.56;;;2.38
64904;BMP280;51401;48.882;12.598;2022-12-07T06:21:29;104020.38;;;2.42
64904;BMP280;51401;48.882;12.598;2022-12-07T06:23:55;104116.28;;;2.40
64904;BMP280;51401;48.882;12.598;2022-12-07T06:26:21;104166.56;;;2.33
64904;BMP280;51401;48.882;12.598;2022-12-07T06:28:46;104244.56;;;2.30
64904;BMP280;51401;48.882;12.598;2022-12-07T06:31:12;104356.22;;;2.33
64904;BMP280;51401;48.882;12.598;2022-12-07T06:33:37;104423.00;;;2.31
64904;BMP280;51401;48.882;12.598;2022-12-07T06:36:02;104487.53;;;2.27
64904;BMP280;51401;48.882;12.598;2022-12-07T06:38:28;104580.72;;;2.26
64904;BMP280;51401;48.882;12.598;2022-12-07T06:40:53;104658.22;;;2.20
64904;BMP280;51401;48.882;12.598;2022-12-07T06:43:18;104765.84;;;2.20
64904;BMP280;51401;48.882;12.598;2022-12-07T06:45:43;104868.09;;;2.23
64904;BMP280;51401;48.882;12.598;2022-12-07T06:48:09;104952.38;;;2.26
64904;BMP280;51401;48.882;12.598;2022-12-07T06:50:34;105042.25;;;2.34
64904;BMP280;51401;48.882;12.598;2022-12-07T06:52:59;105055.91;;;2.34
64904;BMP280;51401;48.882;12.598;2022-12-07T06:55:25;105083.94;;;2.36
64904;BMP280;51401;48.882;12.598;2022-12-07T06:57:50;105096.06;;;2.34
64904;BMP280;51401;48.882;12.598;2022-12-07T07:00:16;105135.91;;;2.38
64904;BMP280;51401;48.882;12.598;2022-12-07T07:02:41;105138.63;;;2.36
64904;BMP280;51401;48.882;12.598;2022-12-07T07:05:07;105148.19;;;2.34
64904;BMP280;51401;48.882;12.598;2022-12-07T07:07:32;105186.50;;;2.36
64904;BMP280;51401;48.882;12.598;2022-12-07T07:09:58;105239.13;;;2.40
64904;BMP280;51401;48.882;12.598;2022-12-07T07:12:23;105254.41;;;2.41
64904;BMP280;51401;48.882;12.598;2022-12-07T07:14:48;105248.09;;;2.45
64904;BMP280;51401;48.882;12.598;2022-12-07T07:17:13;105264.47;;;2.53
64904;BMP280;51401;48.882;12.598;2022-12-07T07:19:39;105238.81;;;2.63
64904;BMP280;51401;48.882;12.598;2022-12-07T07:22:04;105139.34;;;2.66
64904;BMP280;51401;48.882;12.598;2022-12-07T07:24:29;105027.56;;;2.73
64904;BMP280;51401;48.882;12.598;2022-12-07T07:26:55;104857.97;;;2.76
64904;BMP280;51401;48.882;12.598;2022-12-07T07:29:20;104729.16;;;2.82
64904;BMP280;51401;48.882;12.598;2022-12-07T07:31:46;104546.06;;;2.83
64904;BMP280;51401;48.882;12.598;2022-12-07T07:34:11;104356.69;;;2.86
64904;BMP280;51401;48.882;12.598;2022-12-07T07:36:36;104248.34;;;3.00
64904;BMP280;51401;48.882;12.598;2022-12-07T07:39:02;103964.41;;;3.01
64904;BMP280;51401;48.882;12.598;2022-12-07T07:41:27;103759.13;;;3.09
64904;BMP280;51401;48.882;12.598;2022-12-07T07:43:52;103583.75;;;3.16
64904;BMP280;51401;48.882;12.598;2022-12-07T07:46:18;103357.00;;;3.17
64904;BMP280;51401;48.882;12.598;2022-12-07T07:48:43;103176.72;;;3.29
64904;BMP280;51401;48.882;12.598;2022-12-07T07:51:09;102882.03;;;3.26
64904;BMP280;51401;48.882;12.598;2022-12-07T07:53:34;102687.44;;;3.30
64904;BMP280;51401;48.882;12.598;2022-12-07T07:55:59;102513.13;;;3.41
64904;BMP280;51401;48.882;12.598;2022-12-07T07:58:25;102168.50;;;3.23
64904;BMP280;51401;48.882;12.598;2022-12-07T08:00:50;102104.03;;;3.37
64904;BMP280;51401;48.882;12.598;2022-12-07T08:03:16;101985.06;;;3.49
64904;BMP280;51401;48.882;12.598;2022-12-07T08:05:41;101791.13;;;3.60
64904;BMP280;51401;48.882;12.598;2022-12-07T08:08:07;101569.34;;;3.56
64904;BMP280;51401;48.882;12.598;2022-12-07T08:10:32;101351.72;;;3.53
64904;BMP280;51401;48.882;12.598;2022-12-07T08:12:59;101294.69;;;3.67
64904;BMP280;51401;48.882;12.598;2022-12-07T08:15:40;101071.63;;;3.56
64904;BMP280;51401;48.882;12.598;2022-12-07T08:18:06;100996.69;;;3.54
64904;BMP280;51401;48.882;12.598;2022-12-07T08:20:32;100964.53;;;3.73
64904;BMP280;51401;48.882;12.598;2022-12-07T08:22:58;100882.50;;;3.78
64904;BMP280;51401;48.882;12.598;2022-12-07T08:25:23;100796.25;;;3.77
64904;BMP280;51401;48.882;12.598;2022-12-07T08:27:50;100719.31;;;3.86
64904;BMP280;51401;48.882;12.598;2022-12-07T08:30:16;100652.69;;;4.01
64904;BMP280;51401;48.882;12.598;2022-12-07T08:32:41;100545.41;;;4.23
64904;BMP280;51401;48.882;12.598;2022-12-07T08:35:07;100335.38;;;4.15
64904;BMP280;51401;48.882;12.598;2022-12-07T08:37:33;100210.06;;;4.22
64904;BMP280;51401;48.882;12.598;2022-12-07T08:39:58;100062.59;;;4.00
64904;BMP280;51401;48.882;12.598;2022-12-07T08:42:23;99932.53;;;3.95
64904;BMP280;51401;48.882;12.598;2022-12-07T08:44:53;99963.66;;;4.17
64904;BMP280;51401;48.882;12.598;2022-12-07T08:47:18;99840.09;;;4.00
64904;BMP280;51401;48.882;12.598;2022-12-07T08:49:48;99777.22;;;3.80
64904;BMP280;51401;48.882;12.598;2022-12-07T08:52:15;99825.69;;;4.04
64904;BMP280;51401;48.882;12.598;2022-12-07T08:54:41;99844.91;;;4.30
64904;BMP280;51401;48.882;12.598;2022-12-07T08:57:07;99673.13;;;4.15
64904;BMP280;51401;48.882;12.598;2022-12-07T08:59:34;99617.69;;;4.14
64904;BMP280;51401;48.882;12.598;2022-12-07T09:02:01;99597.44;;;4.31
64904;BMP280;51401;48.882;12.598;2022-12-07T09:04:26;99513.09;;;4.24
64904;BMP280;51401;48.882;12.598;2022-12-07T09:06:52;99463.00;;;4.53
64904;BMP280;51401;48.882;12.598;2022-12-07T09:09:18;99352.28;;;4.68
64904;BMP280;51401;48.882;12.598;2022-12-07T09:11:44;99246.28;;;4.76
64904;BMP280;51401;48.882;12.598;2022-12-07T09:14:10;98973.06;;;4.34
64904;BMP280;51401;48.882;12.598;2022-12-07T09:16:36;98888.75;;;4.57
64904;BMP280;51401;48.882;12.598;2022-12-07T09:19:01;98803.25;;;4.65
64904;BMP280;51401;48.882;12.598;2022-12-07T09:21:26;98724.53;;;4.69
64904;BMP280;51401;48.882;12.598;2022-12-07T09:23:52;98663.63;;;4.86
64904;BMP280;51401;48.882;12.598;2022-12-07T09:26:17;98559.91;;;5.08
64904;BMP280;51401;48.882;12.598;2022-12-07T09:28:42;98449.31;;;4.76
64904;BMP280;51401;48.882;12.598;2022-12-07T09:31:08;98412.88;;;4.53
64904;BMP280;51401;48.882;12.598;2022-12-07T09:33:33;98384.09;;;4.40
64904;BMP280;51401;48.882;12.598;2022-12-07T09:35:59;98417.44;;;4.48
64904;BMP280;51401;48.882;12.598;2022-12-07T09:38:24;98420.81;;;4.32
64904;BMP280;51401;48.882;12.598;2022-12-07T09:40:52;98444.00;;;4.44
64904;BMP280;51401;48.882;12.598;2022-12-07T09:43:21;98435.69;;;4.47
64904;BMP280;51401;48.882;12.598;2022-12-07T09:45:51;98406.63;;;4.34
64904;BMP280;51401;48.882;12.598;2022-12-07T09:48:21;98380.72;;;4.48
64904;BMP280;51401;48.882;12.598;2022-12-07T09:50:48;98349.53;;;4.37
64904;BMP280;51401;48.882;12.598;2022-12-07T09:53:29;98324.47;;;4.43
64904;BMP280;51401;48.882;12.598;2022-12-07T09:55:55;98318.00;;;4.37
64904;BMP280;51401;48.882;12.598;2022-12-07T09:58:23;98302.19;;;4.55
64904;BMP280;51401;48.882;12.598;2022-12-07T10:01:05;98276.38;;;4.51
64904;BMP280;51401;48.882;12.598;2022-12-07T10:03:36;98230.44;;;4.58
64904;BMP280;51401;48.882;12.598;2022-12-07T10:06:04;98226.41;;;4.81
64904;BMP280;51401;48.882;12.598;2022-12-07T10:08:30;98171.50;;;5.06
64904;BMP280;51401;48.882;12.598;2022-12-07T10:10:56;98115.72;;;4.94
64904;BMP280;51401;48.882;12.598;2022-12-07T10:16:06;97946.34;;;5.13
64904;BMP280;51401;48.882;12.598;2022-12-07T10:18:40;97921.13;;;5.03
64904;BMP280;51401;48.882;12.598;2022-12-07T10:21:14;97916.63;;;5.27
64904;BMP280;51401;48.882;12.598;2022-12-07T10:24:02;97827.03;;;4.99
64904;BMP280;51401;48.882;12.598;2022-12-07T10:26:36;97785.81;;;4.80
64904;BMP280;51401;48.882;12.598;2022-12-07T10:31:39;97708.91;;;4.56
64904;BMP280;51401;48.882;12.598;2022-12-07T10:34:41;97675.19;;;4.43
64904;BMP280;51401;48.882;12.598;2022-12-07T10:39:49;97629.56;;;4.51
64904;BMP280;51401;48.882;12.598;2022-12-07T10:42:25;97616.75;;;4.51
64904;BMP280;51401;48.882;12.598;2022-12-07T10:45:14;97592.25;;;4.69
64904;BMP280;51401;48.882;12.598;2022-12-07T10:47:51;97563.38;;;4.72
64904;BMP280;51401;48.882;12.598;2022-12-07T11:02:22;97440.97;;;4.95
64904;BMP280;51401;48.882;12.598;2022-12-07T11:13:23;97336.78;;;4.75
64904;BMP280;51401;48.882;12.598;2022-12-07T11:20:54;97290.16;;;4.73
64904;BMP280;51401;48.882;12.598;2022-12-07T11:23:45;97260.31;;;4.65
64904;BMP280;51401;48.882;12.598;2022-12-07T11:26:15;97246.28;;;4.78
64904;BMP280;51401;48.882;12.598;2022-12-07T11:37:05;97174.63;;;4.92
64904;BMP280;51401;48.882;12.598;2022-12-07T11:39:44;97171.72;;;4.93
64904;BMP280;51401;48.882;12.598;2022-12-07T11:42:15;97154.34;;;4.87
64904;BMP280;51401;48.882;12.598;2022-12-07T11:50:37;97093.22;;;4.96
64904;BMP280;51401;48.882;12.598;2022-12-07T12:06:26;97014.91;;;4.83
64904;BMP280;51401;48.882;12.598;2022-12-07T12:14:15;96950.91;;;4.97
64904;BMP280;51401;48.882;12.598;2022-12-07T12:20:15;96933.56;;;4.87
64904;BMP280;51401;48.882;12.598;2022-12-07T12:22:49;96906.59;;;4.71
64904;BMP280;51401;48.882;12.598;2022-12-07T12:25:23;96894.22;;;4.76
64904;BMP280;51401;48.882;12.598;2022-12-07T12:27:50;96869.81;;;4.63
64904;BMP280;51401;48.882;12.598;2022-12-07T12:33:06;96843.38;;;4.59
64904;BMP280;51401;48.882;12.598;2022-12-07T12:35:37;96830.16;;;4.57
64904;BMP280;51401;48.882;12.598;2022-12-07T12:38:26;96824.72;;;4.62
64904;BMP280;51401;48.882;12.598;2022-12-07T12:40:53;96815.53;;;4.61
64904;BMP280;51401;48.882;12.598;2022-12-07T12:43:51;96816.31;;;4.65
64904;BMP280;51401;48.882;12.598;2022-12-07T12:48:57;96795.94;;;4.76
64904;BMP280;51401;48.882;12.598;2022-12-07T12:51:41;96783.66;;;4.62
64904;BMP280;51401;48.882;12.598;2022-12-07T12:56:50;96771.63;;;4.66
64904;BMP280;51401;48.882;12.598;2022-12-07T12:59:34;96757.28;;;4.65
64904;BMP280;51401;48.882;12.598;2022-12-07T13:26:20;96697.88;;;4.63
64904;BMP280;51401;48.882;12.598;2022-12-07T13:33:59;96678.47;;;4.62
64904;BMP280;51401;48.882;12.598;2022-12-07T13:36:27;96671.16;;;4.64
64904;BMP280;51401;48.882;12.598;2022-12-07T13:38:57;96676.72;;;4.70
64904;BMP280;51401;48.882;12.598;2022-12-07T13:41:28;96669.63;;;4.56
64904;BMP280;51401;48.882;12.598;2022-12-07T13:44:08;96667.41;;;4.55
64904;BMP280;51401;48.882;12.598;2022-12-07T13:46:47;96662.22;;;4.51
64904;BMP280;51401;48.882;12.598;2022-12-07T13:49:28;96659.28;;;4.50
64904;BMP280;51401;48.882;12.598;2022-12-07T13:51:55;96657.81;;;4.49
64904;BMP280;51401;48.882;12.598;2022-12-07T13:54:31;96655.59;;;4.47
64904;BMP280;51401;48.882;12.598;2022-12-07T13:56:58;96645.28;;;4.44
64904;BMP280;51401;48.882;12.598;2022-12-07T13:59:25;96641.63;;;4.45
64904;BMP280;51401;48.882;12.598;2022-12-07T14:04:49;96623.34;;;4.50
64904;BMP280;51401;48.882;12.598;2022-12-07T14:09:54;96613.09;;;4.50
64904;BMP280;51401;48.882;12.598;2022-12-07T14:12:19;96597.69;;;4.46
64904;BMP280;51401;48.882;12.598;2022-12-07T14:14:47;96611.94;;;4.44
64904;BMP280;51401;48.882;12.598;2022-12-07T14:17:17;96603.50;;;4.43
64904;BMP280;51401;48.882;12.598;2022-12-07T14:20:03;96605.31;;;4.39
64904;BMP280;51401;48.882;12.598;2022-12-07T14:25:19;96596.94;;;4.42
64904;BMP280;51401;48.882;12.598;2022-12-07T14:30:20;96592.16;;;4.41
64904;BMP280;51401;48.882;12.598;2022-12-07T14:32:48;96598.38;;;4.40
64904;BMP280;51401;48.882;12.598;2022-12-07T14:35:17;96595.41;;;4.38
64904;BMP280;51401;48.882;12.598;2022-12-07T14:37:45;96595.41;;;4.38
64904;BMP280;51401;48.882;12.598;2022-12-07T14:40:19;96589.56;;;4.37
64904;BMP280;51401;48.882;12.598;2022-12-07T14:42:46;96588.44;;;4.35
64904;BMP280;51401;48.882;12.598;2022-12-07T14:45:18;96590.22;;;4.31
64904;BMP280;51401;48.882;12.598;2022-12-07T14:47:53;96594.63;;;4.34
64904;BMP280;51401;48.882;12.598;2022-12-07T14:50:20;96588.38;;;4.31
64904;BMP280;51401;48.882;12.598;2022-12-07T14:52:59;96585.47;;;4.33
64904;BMP280;51401;48.882;12.598;2022-12-07T14:55:27;96590.22;;;4.31
64904;BMP280;51401;48.882;12.598;2022-12-07T14:57:53;96591.69;;;4.32
64904;BMP280;51401;48.882;12.598;2022-12-07T15:00:20;96593.84;;;4.30
64904;BMP280;51401;48.882;12.598;2022-12-07T15:02:46;96598.25;;;4.29
64904;BMP280;51401;48.882;12.598;2022-12-07T15:05:12;96601.88;;;4.25
64904;BMP280;51401;48.882;12.598;2022-12-07T15:07:38;96604.09;;;4.26
64904;BMP280;51401;48.882;12.598;2022-12-07T15:10:05;96605.91;;;4.26
64904;BMP280;51401;48.882;12.598;2022-12-07T15:12:31;96616.91;;;4.26
64904;BMP280;51401;48.882;12.598;2022-12-07T15:14:56;96628.25;;;4.25
64904;BMP280;51401;48.882;12.598;2022-12-07T15:17:22;96637.78;;;4.25
64904;BMP280;51401;48.882;12.598;2022-12-07T15:19:47;96652.06;;;4.26
64904;BMP280;51401;48.882;12.598;2022-12-07T15:22:12;96657.19;;;4.26
64904;BMP280;51401;48.882;12.598;2022-12-07T15:24:38;96658.28;;;4.25
64904;BMP280;51401;48.882;12.598;2022-12-07T15:27:03;96671.84;;;4.25
64904;BMP280;51401;48.882;12.598;2022-12-07T15:29:29;96686.50;;;4.25
64904;BMP280;51401;48.882;12.598;2022-12-07T15:31:54;96682.47;;;4.24
64904;BMP280;51401;48.882;12.598;2022-12-07T15:34:20;96684.31;;;4.23
64904;BMP280;51401;48.882;12.598;2022-12-07T15:36:45;96673.69;;;4.25
64904;BMP280;51401;48.882;12.598;2022-12-07T15:39:11;96694.19;;;4.25
64904;BMP280;51401;48.882;12.598;2022-12-07T15:41:36;96690.94;;;4.24
64904;BMP280;51401;48.882;12.598;2022-12-07T15:44:02;96704.44;;;4.25
64904;BMP280;51401;48.882;12.598;2022-12-07T15:46:46;96708.13;;;4.24
64904;BMP280;51401;48.882;12.598;2022-12-07T15:49:14;96708.81;;;4.21
64904;BMP280;51401;48.882;12.598;2022-12-07T15:51:41;96701.53;;;4.23
64904;BMP280;51401;48.882;12.598;2022-12-07T15:54:11;96707.00;;;4.25
64904;BMP280;51401;48.882;12.598;2022-12-07T15:56:37;96707.00;;;4.21
64904;BMP280;51401;48.882;12.598;2022-12-07T15:59:03;96703.69;;;4.21
64904;BMP280;51401;48.882;12.598;2022-12-07T16:01:28;96702.97;;;4.20
64904;BMP280;51401;48.882;12.598;2022-12-07T16:03:53;96700.78;;;4.22
64904;BMP280;51401;48.882;12.598;2022-12-07T16:06:19;96703.31;;;4.19
64904;BMP280;51401;48.882;12.598;2022-12-07T16:08:45;96700.34;;;4.17
64904;BMP280;51401;48.882;12.598;2022-12-07T16:11:11;96699.97;;;4.15
64904;BMP280;51401;48.882;12.598;2022-12-07T16:13:37;96698.84;;;4.13
64904;BMP280;51401;48.882;12.598;2022-12-07T16:16:05;96701.00;;;4.11
64904;BMP280;51401;48.882;12.598;2022-12-07T16:18:30;96707.94;;;4.10
64904;BMP280;51401;48.882;12.598;2022-12-07T16:20:56;96719.28;;;4.09
64904;BMP280;51401;48.882;12.598;2022-12-07T16:23:21;96716.31;;;4.07
64904;BMP280;51401;48.882;12.598;2022-12-07T16:25:46;96718.88;;;4.07
64904;BMP280;51401;48.882;12.598;2022-12-07T16:28:12;96724.69;;;4.04
64904;BMP280;51401;48.882;12.598;2022-12-07T16:30:37;96732.78;;;4.06
64904;BMP280;51401;48.882;12.598;2022-12-07T16:33:02;96740.84;;;4.05
64904;BMP280;51401;48.882;12.598;2022-12-07T16:35:28;96739.38;;;4.04
64904;BMP280;51401;48.882;12.598;2022-12-07T16:37:53;96747.41;;;4.02
64904;BMP280;51401;48.882;12.598;2022-12-07T16:40:18;96761.31;;;4.01